sensor_id;sensor_type;location;lat;lon;timestamp;pressure;altitude;pressure_sealevel;temperature;humidity
18821;BME280;9539;59.332;18.034;2022-12-20T00:00:13;100607.44;;;3.70;100.00
18821;BME280;9539;59.332;18.034;2022-12-20T00:01:16;100604.25;;;3.61;100.00
18821;BME280;9539;59.332;18.034;2022-12-20T00:02:19;100603.03;;;3.70;100.00
18821;BME280;9539;59.332;18.034;2022-12-20T00:03:20;100597.00;;;3.68;100.00
18821;BME280;9539;59.332;18.034;2022-12-20T00:04:22;100601.00;;;3.78;100.00
18821;BME280;9539;59.332;18.034;2022-12-20T00:05:22;100601.28;;;3.71;100.00
18821;BME280;9539;59.332;18.034;2022-12-20T00:06:25;100602.03;;;3.74;100.00
18821;BME280;9539;59.332;18.034;2022-12-20T00:07:25;100595.28;;;3.67;100.00
18821;BME280;9539;59.332;18.034;2022-12-20T00:08:27;100597.66;;;3.75;100.00
18821;BME280;9539;59.332;18.034;2022-12-20T00:09:28;100598.56;;;3.74;100.00
18821;BME280;9539;59.332;18.034;2022-12-20T00:10:30;100593.19;;;3.77;100.00
18821;BME280;9539;59.332;18.034;2022-12-20T00:11:30;100598.44;;;3.77;100.00
18821;BME280;9539;59.332;18.034;2022-12-20T00:12:32;100594.13;;;3.76;100.00
18821;BME280;9539;59.332;18.034;2022-12-20T00:13:33;100592.97;;;3.83;100.00
18821;BME280;9539;59.332;18.034;2022-12-20T00:14:35;100589.56;;;3.81;100.00
18821;BME280;9539;59.332;18.034;2022-12-20T00:15:37;100594.03;;;3.77;100.00
18821;BME280;9539;59.332;18.034;2022-12-20T00:16:38;100589.38;;;3.85;100.00
18821;BME280;9539;59.332;18.034;2022-12-20T00:17:41;100586.66;;;3.63;100.00
18821;BME280;9539;59.332;18.034;2022-12-20T00:18:42;100584.84;;;3.66;100.00
18821;BME280;9539;59.332;18.034;2022-12-20T00:19:44;100593.56;;;3.66;100.00
18821;BME280;9539;59.332;18.034;2022-12-20T00:20:45;100587.22;;;3.73;100.00
18821;BME280;9539;59.332;18.034;2022-12-20T00:21:46;100586.94;;;3.81;100.00
18821;BME280;9539;59.332;18.034;2022-12-20T00:22:48;100584.25;;;3.82;100.00
18821;BME280;9539;59.332;18.034;2022-12-20T00:23:50;100580.59;;;3.86;100.00
18821;BME280;9539;59.332;18.034;2022-12-20T00:24:51;100577.84;;;3.89;100.00
18821;BME280;9539;59.332;18.034;2022-12-20T00:25:59;100569.19;;;3.87;100.00
18821;BME280;9539;59.332;18.034;2022-12-20T00:27:00;100574.19;;;3.95;100.00
18821;BME280;9539;59.332;18.034;2022-12-20T00:28:02;100576.94;;;3.90;100.00
18821;BME280;9539;59.332;18.034;2022-12-20T00:29:04;100565.66;;;3.88;100.00
18821;BME280;9539;59.332;18.034;2022-12-20T00:30:08;100571.16;;;3.82;100.00
18821;BME280;9539;59.332;18.034;2022-12-20T00:31:10;100563.09;;;3.87;100.00
18821;BME280;9539;59.332;18.034;2022-12-20T00:32:12;100569.19;;;3.87;100.00
18821;BME280;9539;59.332;18.034;2022-12-20T00:33:14;100564.81;;;3.63;100.00
18821;BME280;9539;59.332;18.034;2022-12-20T00:34:16;100569.78;;;3.71;100.00
18821;BME280;9539;59.332;18.034;2022-12-20T00:35:16;100566.09;;;3.76;100.00
18821;BME280;9539;59.332;18.034;2022-12-20T00:36:20;100561.88;;;3.72;100.00
18821;BME280;9539;59.332;18.034;2022-12-20T00:37:21;100573.22;;;3.73;100.00
18821;BME280;9539;59.332;18.034;2022-12-20T00:38:23;100564.13;;;3.58;100.00
18821;BME280;9539;59.332;18.034;2022-12-20T00:39:24;100562.69;;;3.49;100.00
18821;BME280;9539;59.332;18.034;2022-12-20T00:40:25;100569.16;;;3.64;100.00
18821;BME280;9539;59.332;18.034;2022-12-20T00:41:27;100541.53;;;3.54;100.00
18821;BME280;9539;59.332;18.034;2022-12-20T00:42:29;100554.81;;;3.74;100.00
18821;BME280;9539;59.332;18.034;2022-12-20T00:43:30;100561.66;;;3.78;100.00
18821;BME280;9539;59.332;18.034;2022-12-20T00:44:33;100553.13;;;3.72;100.00
18821;BME280;9539;59.332;18.034;2022-12-20T00:45:34;100544.03;;;3.82;100.00
18821;BME280;9539;59.332;18.034;2022-12-20T00:46:35;100546.53;;;3.85;100.00
18821;BME280;9539;59.332;18.034;2022-12-20T00:47:36;100555.66;;;3.75;100.00
18821;BME280;9539;59.332;18.034;2022-12-20T00:48:39;100553.47;;;3.87;100.00
18821;BME280;9539;59.332;18.034;2022-12-20T00:49:40;100555.66;;;3.75;100.00
18821;BME280;9539;59.332;18.034;2022-12-20T00:50:42;100551.28;;;3.75;100.00
18821;BME280;9539;59.332;18.034;2022-12-20T00:51:42;100555.41;;;3.82;100.00
18821;BME280;9539;59.332;18.034;2022-12-20T00:52:44;100548.06;;;3.90;100.00
18821;BME280;9539;59.332;18.034;2022-12-20T00:53:45;100544.09;;;3.80;100.00
18821;BME280;9539;59.332;18.034;2022-12-20T00:54:47;100544.03;;;3.82;100.00
18821;BME280;9539;59.332;18.034;2022-12-20T00:55:47;100551.16;;;3.78;100.00
18821;BME280;9539;59.332;18.034;2022-12-20T00:56:49;100553.09;;;3.73;100.00
18821;BME280;9539;59.332;18.034;2022-12-20T00:57:50;100547.44;;;3.60;100.00
18821;BME280;9539;59.332;18.034;2022-12-20T00:58:51;100548.88;;;3.69;100.00
18821;BME280;9539;59.332;18.034;2022-12-20T00:59:53;100555.31;;;3.84;100.00
18821;BME280;9539;59.332;18.034;2022-12-20T01:00:55;100550.34;;;3.76;100.00
18821;BME280;9539;59.332;18.034;2022-12-20T01:01:56;100548.25;;;3.86;100.00
18821;BME280;9539;59.332;18.034;2022-12-20T01:02:57;100543.47;;;3.74;100.00
18821;BME280;9539;59.332;18.034;2022-12-20T01:04:00;100548.34;;;3.83;100.00
18821;BME280;9539;59.332;18.034;2022-12-20T01:05:02;100545.59;;;3.87;100.00
18821;BME280;9539;59.332;18.034;2022-12-20T01:06:03;100544.72;;;3.87;100.00
18821;BME280;9539;59.332;18.034;2022-12-20T01:07:05;100546.13;;;3.95;100.00
18821;BME280;9539;59.332;18.034;2022-12-20T01:08:05;100546.88;;;3.76;100.00
18821;BME280;9539;59.332;18.034;2022-12-20T01:09:08;100546.03;;;3.75;100.00
18821;BME280;9539;59.332;18.034;2022-12-20T01:10:10;100542.59;;;3.73;100.00
18821;BME280;9539;59.332;18.034;2022-12-20T01:11:14;100539.78;;;3.78;100.00
18821;BME280;9539;59.332;18.034;2022-12-20T01:12:15;100541.91;;;3.91;100.00
18821;BME280;9539;59.332;18.034;2022-12-20T01:13:17;100547.13;;;3.93;100.00
18821;BME280;9539;59.332;18.034;2022-12-20T01:14:18;100538.88;;;3.79;100.00
18821;BME280;9539;59.332;18.034;2022-12-20T01:15:20;100546.34;;;3.89;100.00
18821;BME280;9539;59.332;18.034;2022-12-20T01:16:23;100544.81;;;3.84;100.00
18821;BME280;9539;59.332;18.034;2022-12-20T01:17:25;100534.44;;;3.81;100.00
18821;BME280;9539;59.332;18.034;2022-12-20T01:18:25;100535.41;;;3.78;100.00
18821;BME280;9539;59.332;18.034;2022-12-20T01:19:28;100530.78;;;3.61;100.00
18821;BME280;9539;59.332;18.034;2022-12-20T01:20:29;100536.75;;;3.65;100.00
18821;BME280;9539;59.332;18.034;2022-12-20T01:21:31;100533.06;;;3.71;100.00
18821;BME280;9539;59.332;18.034;2022-12-20T01:22:32;100530.38;;;3.72;100.00
18821;BME280;9539;59.332;18.034;2022-12-20T01:23:34;100522.63;;;3.69;100.00
18821;BME280;9539;59.332;18.034;2022-12-20T01:24:35;100522.41;;;3.75;100.00
18821;BME280;9539;59.332;18.034;2022-12-20T01:25:37;100530.75;;;3.86;100.00
18821;BME280;9539;59.332;18.034;2022-12-20T01:26:38;100519.66;;;3.78;100.00
18821;BME280;9539;59.332;18.034;2022-12-20T01:27:39;100516.13;;;3.79;100.00
18821;BME280;9539;59.332;18.034;2022-12-20T01:28:41;100517.56;;;3.88;100.00
18821;BME280;9539;59.332;18.034;2022-12-20T01:29:44;100519.06;;;3.70;100.00
18821;BME280;9539;59.332;18.034;2022-12-20T01:30:45;100512.66;;;3.79;100.00
18821;BME280;9539;59.332;18.034;2022-12-20T01:31:46;100506.53;;;3.78;100.00
18821;BME280;9539;59.332;18.034;2022-12-20T01:32:48;100510.47;;;3.67;100.00
18821;BME280;9539;59.332;18.034;2022-12-20T01:33:50;100505.50;;;3.59;100.00
18821;BME280;9539;59.332;18.034;2022-12-20T01:34:54;100512.16;;;3.69;100.00
18821;BME280;9539;59.332;18.034;2022-12-20T01:35:56;100509.56;;;3.68;100.00
18821;BME280;9539;59.332;18.034;2022-12-20T01:36:58;100502.47;;;3.70;100.00
18821;BME280;9539;59.332;18.034;2022-12-20T01:38:00;100507.44;;;3.77;100.00
18821;BME280;9539;59.332;18.034;2022-12-20T01:39:03;100507.03;;;3.65;100.00
18821;BME280;9539;59.332;18.034;2022-12-20T01:40:06;100499.03;;;3.69;100.00
18821;BME280;9539;59.332;18.034;2022-12-20T01:41:10;100503.63;;;3.63;100.00
18821;BME280;9539;59.332;18.034;2022-12-20T01:42:15;100503.34;;;3.70;100.00
18821;BME280;9539;59.332;18.034;2022-12-20T01:43:17;100495.41;;;3.72;100.00
18821;BME280;9539;59.332;18.034;2022-12-20T01:44:50;100508.13;;;3.59;100.00
18821;BME280;9539;59.332;18.034;2022-12-20T01:45:52;100501.38;;;3.52;100.00
18821;BME280;9539;59.332;18.034;2022-12-20T01:46:54;100506.75;;;3.49;100.00
18821;BME280;9539;59.332;18.034;2022-12-20T01:47:56;100499.75;;;3.49;100.00
18821;BME280;9539;59.332;18.034;2022-12-20T01:49:01;100497.97;;;3.50;100.00
18821;BME280;9539;59.332;18.034;2022-12-20T01:50:07;100497.59;;;3.36;100.00
18821;BME280;9539;59.332;18.034;2022-12-20T01:51:09;100504.44;;;3.40;100.00
18821;BME280;9539;59.332;18.034;2022-12-20T01:52:11;100494.41;;;3.51;100.00
18821;BME280;9539;59.332;18.034;2022-12-20T01:53:17;100499.34;;;3.60;100.00
18821;BME280;9539;59.332;18.034;2022-12-20T01:54:22;100485.69;;;3.50;100.00
18821;BME280;9539;59.332;18.034;2022-12-20T01:55:26;100487.09;;;3.60;100.00
18821;BME280;9539;59.332;18.034;2022-12-20T01:56:28;100486.03;;;3.65;100.00
18821;BME280;9539;59.332;18.034;2022-12-20T01:57:35;100480.06;;;3.61;100.00
18821;BME280;9539;59.332;18.034;2022-12-20T01:58:40;100483.69;;;3.57;100.00
18821;BME280;9539;59.332;18.034;2022-12-20T01:59:44;100479.22;;;3.60;100.00
18821;BME280;9539;59.332;18.034;2022-12-20T02:00:46;100475.72;;;3.60;100.00
18821;BME280;9539;59.332;18.034;2022-12-20T02:01:48;100480.03;;;3.63;100.00
18821;BME280;9539;59.332;18.034;2022-12-20T02:02:49;100472.97;;;3.63;100.00
18821;BME280;9539;59.332;18.034;2022-12-20T02:03:53;100469.50;;;3.39;100.00
18821;BME280;9539;59.332;18.034;2022-12-20T02:04:54;100468.31;;;3.48;100.00
18821;BME280;9539;59.332;18.034;2022-12-20T02:06:13;100471.19;;;3.40;100.00
18821;BME280;9539;59.332;18.034;2022-12-20T02:07:17;100476.19;;;3.48;100.00
18821;BME280;9539;59.332;18.034;2022-12-20T02:08:21;100473.72;;;3.43;100.00
18821;BME280;9539;59.332;18.034;2022-12-20T02:09:21;100465.22;;;3.37;100.00
18821;BME280;9539;59.332;18.034;2022-12-20T02:10:29;100468.31;;;3.48;100.00
18821;BME280;9539;59.332;18.034;2022-12-20T02:11:48;100476.63;;;3.36;100.00
18821;BME280;9539;59.332;18.034;2022-12-20T02:12:58;100472.97;;;3.40;100.00
18821;BME280;9539;59.332;18.034;2022-12-20T02:14:09;100474.84;;;3.36;100.00
18821;BME280;9539;59.332;18.034;2022-12-20T02:15:34;100465.91;;;3.42;100.00
18821;BME280;9539;59.332;18.034;2022-12-20T02:16:47;100462.00;;;3.29;100.00
18821;BME280;9539;59.332;18.034;2022-12-20T02:17:58;100464.19;;;3.41;100.00
18821;BME280;9539;59.332;18.034;2022-12-20T02:19:12;100471.78;;;3.48;100.00
18821;BME280;9539;59.332;18.034;2022-12-20T02:20:45;100465.50;;;3.52;100.00
18821;BME280;9539;59.332;18.034;2022-12-20T02:21:53;100471.34;;;3.60;100.00
18821;BME280;9539;59.332;18.034;2022-12-20T02:23:33;100466.19;;;3.34;100.00
18821;BME280;9539;59.332;18.034;2022-12-20T02:25:01;100457.91;;;3.45;100.00
18821;BME280;9539;59.332;18.034;2022-12-20T02:26:18;100451.47;;;3.30;100.00
18821;BME280;9539;59.332;18.034;2022-12-20T02:27:34;100458.13;;;3.39;100.00
18821;BME280;9539;59.332;18.034;2022-12-20T02:28:57;100443.66;;;3.52;100.00
18821;BME280;9539;59.332;18.034;2022-12-20T02:30:10;100447.66;;;3.39;100.00
18821;BME280;9539;59.332;18.034;2022-12-20T02:31:14;100441.19;;;3.49;100.00
18821;BME280;9539;59.332;18.034;2022-12-20T02:32:24;100443.09;;;3.44;100.00
18821;BME280;9539;59.332;18.034;2022-12-20T02:33:26;100447.38;;;3.46;100.00
18821;BME280;9539;59.332;18.034;2022-12-20T02:34:32;100442.41;;;3.39;100.00
18821;BME280;9539;59.332;18.034;2022-12-20T02:35:37;100443.22;;;3.41;100.00
18821;BME280;9539;59.332;18.034;2022-12-20T02:36:39;100442.03;;;3.49;100.00
18821;BME280;9539;59.332;18.034;2022-12-20T02:37:49;100439.09;;;3.34;100.00
18821;BME280;9539;59.332;18.034;2022-12-20T02:38:51;100438.78;;;3.43;100.00
18821;BME280;9539;59.332;18.034;2022-12-20T02:39:52;100440.03;;;3.56;100.00
18821;BME280;9539;59.332;18.034;2022-12-20T02:40:57;100434.44;;;3.42;100.00
18821;BME280;9539;59.332;18.034;2022-12-20T02:42:01;100443.44;;;3.35;100.00
18821;BME280;9539;59.332;18.034;2022-12-20T02:43:07;100417.47;;;3.27;100.00
18821;BME280;9539;59.332;18.034;2022-12-20T02:44:32;100434.25;;;3.46;100.00
18821;BME280;9539;59.332;18.034;2022-12-20T02:45:55;100440.31;;;3.48;100.00
18821;BME280;9539;59.332;18.034;2022-12-20T02:47:00;100438.59;;;3.47;100.00
18821;BME280;9539;59.332;18.034;2022-12-20T02:48:04;100438.47;;;3.50;100.00
18821;BME280;9539;59.332;18.034;2022-12-20T02:49:10;100442.75;;;3.53;100.00
18821;BME280;9539;59.332;18.034;2022-12-20T02:50:13;100431.53;;;3.49;100.00
18821;BME280;9539;59.332;18.034;2022-12-20T02:51:18;100443.63;;;3.53;100.00
18821;BME280;9539;59.332;18.034;2022-12-20T02:52:24;100429.53;;;3.56;100.00
18821;BME280;9539;59.332;18.034;2022-12-20T02:53:27;100427.47;;;3.41;100.00
18821;BME280;9539;59.332;18.034;2022-12-20T02:54:29;100418.75;;;3.40;100.00
18821;BME280;9539;59.332;18.034;2022-12-20T02:55:38;100420.16;;;3.26;100.00
18821;BME280;9539;59.332;18.034;2022-12-20T02:56:44;100420.91;;;3.29;100.00
18821;BME280;9539;59.332;18.034;2022-12-20T02:57:53;100421.41;;;3.15;100.00
18821;BME280;9539;59.332;18.034;2022-12-20T02:58:59;100420.97;;;3.28;100.00
18821;BME280;9539;59.332;18.034;2022-12-20T03:00:05;100411.38;;;3.27;100.00
18821;BME280;9539;59.332;18.034;2022-12-20T03:01:11;100412.38;;;3.24;100.00
18821;BME280;9539;59.332;18.034;2022-12-20T03:02:15;100413.91;;;3.05;100.00
18821;BME280;9539;59.332;18.034;2022-12-20T03:03:16;100412.38;;;3.24;100.00
18821;BME280;9539;59.332;18.034;2022-12-20T03:04:26;100405.56;;;3.18;100.00
18821;BME280;9539;59.332;18.034;2022-12-20T03:05:28;100414.22;;;3.20;100.00
18821;BME280;9539;59.332;18.034;2022-12-20T03:06:30;100412.72;;;3.13;100.00
18821;BME280;9539;59.332;18.034;2022-12-20T03:07:33;100411.25;;;3.06;100.00
18821;BME280;9539;59.332;18.034;2022-12-20T03:08:34;100409.44;;;3.08;100.00
18821;BME280;9539;59.332;18.034;2022-12-20T03:09:37;100407.06;;;3.01;100.00
18821;BME280;9539;59.332;18.034;2022-12-20T03:10:38;100404.50;;;2.99;100.00
18821;BME280;9539;59.332;18.034;2022-12-20T03:11:40;100404.00;;;3.13;100.00
18821;BME280;9539;59.332;18.034;2022-12-20T03:12:41;100407.84;;;3.04;100.00
18821;BME280;9539;59.332;18.034;2022-12-20T03:13:43;100407.13;;;2.99;100.00
18821;BME280;9539;59.332;18.034;2022-12-20T03:14:43;100406.53;;;3.16;100.00
18821;BME280;9539;59.332;18.034;2022-12-20T03:15:45;100407.25;;;2.96;100.00
18821;BME280;9539;59.332;18.034;2022-12-20T03:16:47;100396.84;;;2.93;100.00
18821;BME280;9539;59.332;18.034;2022-12-20T03:17:49;100403.22;;;3.11;100.00
18821;BME280;9539;59.332;18.034;2022-12-20T03:18:50;100399.69;;;3.12;100.00
18821;BME280;9539;59.332;18.034;2022-12-20T03:19:51;100399.63;;;3.13;100.00
18821;BME280;9539;59.332;18.034;2022-12-20T03:20:52;100403.91;;;3.16;100.00
18821;BME280;9539;59.332;18.034;2022-12-20T03:21:54;100394.13;;;3.21;100.00
18821;BME280;9539;59.332;18.034;2022-12-20T03:22:54;100396.41;;;3.30;100.00
18821;BME280;9539;59.332;18.034;2022-12-20T03:23:56;100396.06;;;3.39;100.00
18821;BME280;9539;59.332;18.034;2022-12-20T03:24:57;100384.59;;;3.42;100.00
18821;BME280;9539;59.332;18.034;2022-12-20T03:25:58;100396.91;;;3.40;100.00
18821;BME280;9539;59.332;18.034;2022-12-20T03:26:59;100386.19;;;3.22;100.00
18821;BME280;9539;59.332;18.034;2022-12-20T03:28:01;100385.38;;;2.97;100.00
18821;BME280;9539;59.332;18.034;2022-12-20T03:29:02;100397.22;;;3.07;100.00
18821;BME280;9539;59.332;18.034;2022-12-20T03:30:05;100394.09;;;2.98;100.00
18821;BME280;9539;59.332;18.034;2022-12-20T03:31:06;100392.50;;;2.92;100.00
18821;BME280;9539;59.332;18.034;2022-12-20T03:32:09;100397.63;;;2.97;100.00
18821;BME280;9539;59.332;18.034;2022-12-20T03:33:10;100399.13;;;3.04;100.00
18821;BME280;9539;59.332;18.034;2022-12-20T03:34:12;100399.16;;;3.02;100.00
18821;BME280;9539;59.332;18.034;2022-12-20T03:35:13;100397.22;;;3.07;100.00
18821;BME280;9539;59.332;18.034;2022-12-20T03:36:14;100389.72;;;3.21;100.00
18821;BME280;9539;59.332;18.034;2022-12-20T03:37:15;100392.06;;;3.29;100.00
18821;BME280;9539;59.332;18.034;2022-12-20T03:38:16;100395.69;;;3.25;100.00
18821;BME280;9539;59.332;18.034;2022-12-20T03:39:18;100401.03;;;3.24;100.00
18821;BME280;9539;59.332;18.034;2022-12-20T03:40:19;100383.81;;;3.16;100.00
18821;BME280;9539;59.332;18.034;2022-12-20T03:41:21;100387.97;;;3.22;100.00
18821;BME280;9539;59.332;18.034;2022-12-20T03:42:22;100386.06;;;3.26;100.00
18821;BME280;9539;59.332;18.034;2022-12-20T03:43:23;100381.75;;;3.00;100.00
18821;BME280;9539;59.332;18.034;2022-12-20T03:44:24;100391.81;;;3.12;100.00
18821;BME280;9539;59.332;18.034;2022-12-20T03:45:26;100384.66;;;3.17;100.00
18821;BME280;9539;59.332;18.034;2022-12-20T03:46:27;100385.72;;;3.11;100.00
18821;BME280;9539;59.332;18.034;2022-12-20T03:47:30;100386.56;;;3.12;100.00
18821;BME280;9539;59.332;18.034;2022-12-20T03:48:31;100387.50;;;3.11;100.00
18821;BME280;9539;59.332;18.034;2022-12-20T03:49:33;100389.03;;;3.16;100.00
18821;BME280;9539;59.332;18.034;2022-12-20T03:50:34;100387.34;;;3.15;100.00
18821;BME280;9539;59.332;18.034;2022-12-20T03:51:36;100381.81;;;3.23;100.00
18821;BME280;9539;59.332;18.034;2022-12-20T03:52:37;100377.28;;;3.27;100.00
18821;BME280;9539;59.332;18.034;2022-12-20T03:53:39;100377.47;;;3.22;100.00
18821;BME280;9539;59.332;18.034;2022-12-20T03:54:40;100382.44;;;3.30;100.00
18821;BME280;9539;59.332;18.034;2022-12-20T03:55:41;100377.94;;;3.33;100.00
18821;BME280;9539;59.332;18.034;2022-12-20T03:56:42;100372.50;;;3.14;100.00
18821;BME280;9539;59.332;18.034;2022-12-20T03:57:44;100373.09;;;3.22;100.00
18821;BME280;9539;59.332;18.034;2022-12-20T03:58:45;100374.75;;;3.00;100.00
18821;BME280;9539;59.332;18.034;2022-12-20T03:59:46;100365.13;;;3.01;100.00
18821;BME280;9539;59.332;18.034;2022-12-20T04:00:47;100367.31;;;3.13;100.00
18821;BME280;9539;59.332;18.034;2022-12-20T04:01:49;100370.97;;;3.09;100.00
18821;BME280;9539;59.332;18.034;2022-12-20T04:02:51;100370.97;;;3.09;100.00
18821;BME280;9539;59.332;18.034;2022-12-20T04:03:53;100374.03;;;3.20;100.00
18821;BME280;9539;59.332;18.034;2022-12-20T04:04:54;100368.75;;;3.21;100.00
18821;BME280;9539;59.332;18.034;2022-12-20T04:05:55;100362.06;;;3.13;100.00
18821;BME280;9539;59.332;18.034;2022-12-20T04:06:56;100362.28;;;3.07;100.00
18821;BME280;9539;59.332;18.034;2022-12-20T04:07:58;100370.06;;;3.10;100.00
18821;BME280;9539;59.332;18.034;2022-12-20T04:08:59;100361.34;;;3.09;100.00
18821;BME280;9539;59.332;18.034;2022-12-20T04:10:00;100369.88;;;3.14;100.00
18821;BME280;9539;59.332;18.034;2022-12-20T04:11:01;100366.94;;;3.24;100.00
18821;BME280;9539;59.332;18.034;2022-12-20T04:12:18;100362.84;;;3.16;100.00
18821;BME280;9539;59.332;18.034;2022-12-20T04:13:19;100360.06;;;3.19;100.00
18821;BME280;9539;59.332;18.034;2022-12-20T04:14:20;100357.69;;;3.13;100.00
18821;BME280;9539;59.332;18.034;2022-12-20T04:15:21;100349.94;;;3.10;100.00
18821;BME280;9539;59.332;18.034;2022-12-20T04:16:24;100350.22;;;3.26;100.00
18821;BME280;9539;59.332;18.034;2022-12-20T04:17:26;100355.09;;;3.37;100.00
18821;BME280;9539;59.332;18.034;2022-12-20T04:18:28;100358.66;;;3.34;100.00
18821;BME280;9539;59.332;18.034;2022-12-20T04:19:29;100349.88;;;3.35;100.00
18821;BME280;9539;59.332;18.034;2022-12-20T04:20:30;100342.31;;;3.28;100.00
18821;BME280;9539;59.332;18.034;2022-12-20T04:21:33;100348.41;;;3.28;100.00
18821;BME280;9539;59.332;18.034;2022-12-20T04:22:34;100347.81;;;3.20;100.00
18821;BME280;9539;59.332;18.034;2022-12-20T04:23:36;100337.78;;;3.31;100.00
18821;BME280;9539;59.332;18.034;2022-12-20T04:24:37;100339.50;;;3.32;100.00
18821;BME280;9539;59.332;18.034;2022-12-20T04:25:39;100336.50;;;3.43;100.00
18821;BME280;9539;59.332;18.034;2022-12-20T04:26:40;100334.72;;;3.43;100.00
18821;BME280;9539;59.332;18.034;2022-12-20T04:27:42;100338.59;;;3.33;100.00
18821;BME280;9539;59.332;18.034;2022-12-20T04:28:42;100334.22;;;3.34;100.00
18821;BME280;9539;59.332;18.034;2022-12-20T04:29:44;100335.53;;;3.22;100.00
18821;BME280;9539;59.332;18.034;2022-12-20T04:30:46;100336.81;;;3.34;100.00
18821;BME280;9539;59.332;18.034;2022-12-20T04:31:47;100331.59;;;3.34;100.00
18821;BME280;9539;59.332;18.034;2022-12-20T04:32:48;100328.88;;;3.37;100.00
18821;BME280;9539;59.332;18.034;2022-12-20T04:33:55;100324.84;;;3.27;100.00
18821;BME280;9539;59.332;18.034;2022-12-20T04:34:57;100333.00;;;3.42;100.00
18821;BME280;9539;59.332;18.034;2022-12-20T04:35:57;100328.97;;;3.34;100.00
18821;BME280;9539;59.332;18.034;2022-12-20T04:36:59;100330.00;;;3.30;100.00
18821;BME280;9539;59.332;18.034;2022-12-20T04:38:00;100324.91;;;3.25;100.00
18821;BME280;9539;59.332;18.034;2022-12-20T04:39:02;100322.50;;;3.19;100.00
18821;BME280;9539;59.332;18.034;2022-12-20T04:40:04;100313.69;;;3.21;100.00
18821;BME280;9539;59.332;18.034;2022-12-20T04:41:06;100319.84;;;3.20;100.00
18821;BME280;9539;59.332;18.034;2022-12-20T04:42:06;100320.13;;;3.36;100.00
18821;BME280;9539;59.332;18.034;2022-12-20T04:43:08;100314.81;;;3.38;100.00
18821;BME280;9539;59.332;18.034;2022-12-20T04:44:09;100315.81;;;3.35;100.00
18821;BME280;9539;59.332;18.034;2022-12-20T04:45:11;100315.56;;;3.41;100.00
18821;BME280;9539;59.332;18.034;2022-12-20T04:46:11;100312.94;;;3.41;100.00
18821;BME280;9539;59.332;18.034;2022-12-20T04:47:13;100307.50;;;3.46;100.00
18821;BME280;9539;59.332;18.034;2022-12-20T04:48:14;100309.88;;;3.30;100.00
18821;BME280;9539;59.332;18.034;2022-12-20T04:49:18;100311.66;;;3.30;100.00
18821;BME280;9539;59.332;18.034;2022-12-20T04:50:18;100313.94;;;3.37;100.00
18821;BME280;9539;59.332;18.034;2022-12-20T04:51:20;100308.59;;;3.40;100.00
18821;BME280;9539;59.332;18.034;2022-12-20T04:52:22;100311.28;;;3.39;100.00
18821;BME280;9539;59.332;18.034;2022-12-20T04:53:41;100309.66;;;3.36;100.00
18821;BME280;9539;59.332;18.034;2022-12-20T04:54:47;100301.53;;;3.42;100.00
18821;BME280;9539;59.332;18.034;2022-12-20T04:55:48;100307.25;;;3.30;100.00
18821;BME280;9539;59.332;18.034;2022-12-20T04:56:50;100300.94;;;3.36;100.00
18821;BME280;9539;59.332;18.034;2022-12-20T04:57:51;100308.56;;;3.42;100.00
18821;BME280;9539;59.332;18.034;2022-12-20T04:58:54;100302.31;;;3.44;100.00
18821;BME280;9539;59.332;18.034;2022-12-20T04:59:55;100303.97;;;3.47;100.00
18821;BME280;9539;59.332;18.034;2022-12-20T05:00:56;100301.59;;;3.41;100.00
18821;BME280;9539;59.332;18.034;2022-12-20T05:01:57;100295.91;;;3.30;100.00
18821;BME280;9539;59.332;18.034;2022-12-20T05:02:59;100292.97;;;3.37;100.00
18821;BME280;9539;59.332;18.034;2022-12-20T05:04:00;100297.84;;;3.25;100.00
18821;BME280;9539;59.332;18.034;2022-12-20T05:05:04;100295.56;;;3.15;100.00
18821;BME280;9539;59.332;18.034;2022-12-20T05:06:05;100292.59;;;3.25;100.00
18821;BME280;9539;59.332;18.034;2022-12-20T05:07:07;100295.28;;;3.23;100.00
18821;BME280;9539;59.332;18.034;2022-12-20T05:08:09;100297.53;;;3.32;100.00
18821;BME280;9539;59.332;18.034;2022-12-20T05:09:10;100301.03;;;3.33;100.00
18821;BME280;9539;59.332;18.034;2022-12-20T05:10:12;100299.94;;;3.38;100.00
18821;BME280;9539;59.332;18.034;2022-12-20T05:11:13;100297.31;;;3.38;100.00
18821;BME280;9539;59.332;18.034;2022-12-20T05:12:15;100298.97;;;3.41;100.00
18821;BME280;9539;59.332;18.034;2022-12-20T05:13:15;100297.59;;;3.31;100.00
18821;BME280;9539;59.332;18.034;2022-12-20T05:14:17;100303.66;;;3.33;100.00
18821;BME280;9539;59.332;18.034;2022-12-20T05:15:18;100304.50;;;3.33;100.00
18821;BME280;9539;59.332;18.034;2022-12-20T05:16:20;100303.56;;;3.36;100.00
18821;BME280;9539;59.332;18.034;2022-12-20T05:17:22;100298.97;;;3.41;100.00
18821;BME280;9539;59.332;18.034;2022-12-20T05:18:23;100295.50;;;3.40;100.00
18821;BME280;9539;59.332;18.034;2022-12-20T05:19:25;100302.75;;;3.34;100.00
18821;BME280;9539;59.332;18.034;2022-12-20T05:20:29;100296.44;;;3.38;100.00
18821;BME280;9539;59.332;18.034;2022-12-20T05:21:31;100300.44;;;3.48;100.00
18821;BME280;9539;59.332;18.034;2022-12-20T05:22:50;100306.66;;;3.45;100.00
18821;BME280;9539;59.332;18.034;2022-12-20T05:24:09;100310.94;;;3.48;100.00
18821;BME280;9539;59.332;18.034;2022-12-20T05:25:28;100301.16;;;3.51;100.00
18821;BME280;9539;59.332;18.034;2022-12-20T05:26:47;100303.56;;;3.36;100.00
18821;BME280;9539;59.332;18.034;2022-12-20T05:27:48;100306.84;;;3.41;100.00
18821;BME280;9539;59.332;18.034;2022-12-20T05:28:49;100294.06;;;3.32;100.00
18821;BME280;9539;59.332;18.034;2022-12-20T05:29:52;100305.13;;;3.40;100.00
18821;BME280;9539;59.332;18.034;2022-12-20T05:30:52;100306.31;;;3.31;100.00
18821;BME280;9539;59.332;18.034;2022-12-20T05:31:54;100282.72;;;3.31;100.00